Time;durP1;ratioP1;P1;durP2;ratioP2;P2;SDS_P1;SDS_P2;PMS_P1;PMS_P2;Temp;Humidity;BMP_temperature;BMP_pressure;BME280_temperature;BME280_humidity;BME280_pressure;Samples;Min_cycle;Max_cycle;Signal;HPM_P1;HPM_P2
2021/09/05 00:01:44;;;;;;;;;;;;;;;18.00;100.00;99541.13;5093133;28;19928;-78
2021/09/05 00:04:12;;;;;;;;;;;;;;;18.03;100.00;99543.03;5093577;28;20019;-78
2021/09/05 00:06:39;;;;;;;;;;;;;;;18.11;100.00;99541.53;5075350;28;19928;-77
2021/09/05 00:09:06;;;;;;;;;;;;;;;18.07;100.00;99543.69;5093421;28;19928;-78
2021/09/05 00:11:33;;;;;;;;;;;;;;;17.92;100.00;99539.81;5093454;28;19955;-78
2021/09/05 00:14:00;;;;;;;;;;;;;;;17.85;100.00;99540.91;5075396;28;19924;-78
2021/09/05 00:16:30;;;;;;;;;;;;;;;17.96;100.00;99538.44;5093270;28;19924;-78
2021/09/05 00:18:57;;;;;;;;;;;;;;;18.01;100.00;99534.22;5093060;28;19924;-78
2021/09/05 00:21:25;;;;;;;;;;;;;;;18.01;100.00;99536.28;5093135;28;19931;-78
2021/09/05 00:23:52;;;;;;;;;;;;;;;18.02;100.00;99530.16;5097182;28;19930;-78
2021/09/05 00:26:19;;;;;;;;;;;;;;;18.07;100.00;99532.38;5097486;28;19924;-77
2021/09/05 00:28:47;;;;;;;;;;;;;;;18.01;100.00;99534.22;5097220;28;19951;-78
2021/09/05 00:31:14;;;;;;;;;;;;;;;17.99;100.00;99531.09;5079330;28;19931;-78
2021/09/05 00:33:41;;;;;;;;;;;;;;;18.04;100.00;99526.88;5079299;28;19930;-78
2021/09/05 00:36:09;;;;;;;;;;;;;;;18.13;100.00;99535.41;5081800;28;19928;-78
2021/09/05 00:38:38;;;;;;;;;;;;;;;18.12;100.00;99523.28;5059419;28;19948;-78
2021/09/05 00:41:05;;;;;;;;;;;;;;;18.20;100.00;99523.81;5061097;28;19924;-78
2021/09/05 00:43:50;;;;;;;;;;;;;;;18.22;100.00;99533.38;5078992;28;19928;-78
2021/09/05 00:46:17;;;;;;;;;;;;;;;18.17;100.00;99525.53;5079254;28;19974;-78
2021/09/05 00:48:44;;;;;;;;;;;;;;;18.17;100.00;99522.69;5078854;28;19947;-78
2021/09/05 00:51:11;;;;;;;;;;;;;;;18.14;100.00;99520.00;5078795;28;19989;-78
2021/09/05 00:53:38;;;;;;;;;;;;;;;18.07;100.00;99526.72;5092288;28;19952;-78
2021/09/05 00:56:06;;;;;;;;;;;;;;;18.03;100.00;99514.75;5071308;28;19935;-78
2021/09/05 00:58:35;;;;;;;;;;;;;;;17.99;100.00;99519.78;5078770;28;20375;-78
2021/09/05 01:01:02;;;;;;;;;;;;;;;18.00;100.00;99527.00;5096633;28;19928;-77
2021/09/05 01:03:29;;;;;;;;;;;;;;;18.03;100.00;99523.25;5096584;28;19924;-78
2021/09/05 01:06:08;;;;;;;;;;;;;;;17.91;100.00;99521.28;5112763;28;20393;-77
2021/09/05 01:08:36;;;;;;;;;;;;;;;17.92;100.00;99520.84;5078376;28;19971;-77
2021/09/05 01:11:04;;;;;;;;;;;;;;;17.98;100.00;99523.06;5068880;28;19924;-77
2021/09/05 01:13:34;;;;;;;;;;;;;;;18.02;100.00;99529.38;5078491;28;19924;-78
2021/09/05 01:16:02;;;;;;;;;;;;;;;17.99;100.00;99533.91;5078722;28;20375;-78
2021/09/05 01:18:38;;;;;;;;;;;;;;;17.82;100.00;99524.06;5078389;28;20019;-78
2021/09/05 01:21:41;;;;;;;;;;;;;;;17.78;100.00;99531.91;5083169;28;20294;-77
2021/09/05 01:24:37;;;;;;;;;;;;;;;17.81;100.00;99525.31;5096200;28;19924;-78
2021/09/05 01:27:30;;;;;;;;;;;;;;;17.79;100.00;99534.25;5055841;28;19928;-77
2021/09/05 01:30:31;;;;;;;;;;;;;;;17.84;100.00;99530.06;5013789;28;20012;-78
2021/09/05 01:33:33;;;;;;;;;;;;;;;17.72;100.00;99540.16;4935876;29;20022;-78
2021/09/05 01:36:00;;;;;;;;;;;;;;;17.71;100.00;99527.28;4936266;29;19926;-78
2021/09/05 01:38:46;;;;;;;;;;;;;;;17.70;100.00;99541.88;4936107;29;19935;-77
2021/09/05 01:41:34;;;;;;;;;;;;;;;17.77;100.00;99533.94;4900925;29;20596;-78
2021/09/05 01:44:51;;;;;;;;;;;;;;;17.35;100.00;99531.84;4935344;29;19934;-78
2021/09/05 01:47:38;;;;;;;;;;;;;;;17.35;100.00;99537.50;4935381;29;20064;-78
2021/09/05 01:50:29;;;;;;;;;;;;;;;17.36;100.00;99536.22;4927841;29;19927;-78
2021/09/05 01:53:19;;;;;;;;;;;;;;;17.45;100.00;99542.78;4932654;29;19927;-78
2021/09/05 01:56:07;;;;;;;;;;;;;;;17.37;100.00;99541.44;4926486;29;20024;-78
2021/09/05 01:58:45;;;;;;;;;;;;;;;17.44;100.00;99544.03;4933048;29;19934;-77
2021/09/05 02:01:51;;;;;;;;;;;;;;;17.55;100.00;99552.13;4878816;29;19928;-78
2021/09/05 02:04:36;;;;;;;;;;;;;;;17.56;100.00;99542.41;4863777;29;20447;-78
2021/09/05 02:07:21;;;;;;;;;;;;;;;17.72;100.00;99545.81;4959374;28;19934;-78
2021/09/05 02:10:09;;;;;;;;;;;;;;;17.57;100.00;99543.97;4999183;28;19981;-78
2021/09/05 02:13:00;;;;;;;;;;;;;;;17.54;100.00;99542.06;4980622;28;19932;-78
2021/09/05 02:15:49;;;;;;;;;;;;;;;17.70;100.00;99544.72;4986947;28;20419;-77
2021/09/05 02:18:36;;;;;;;;;;;;;;;17.49;100.00;99545.50;4999595;28;19931;-77
2021/09/05 02:21:24;;;;;;;;;;;;;;;17.61;100.00;99541.81;4995217;28;20025;-78
2021/09/05 02:24:09;;;;;;;;;;;;;;;17.56;100.00;99548.06;4996098;28;19925;-77
2021/09/05 02:26:56;;;;;;;;;;;;;;;17.36;100.00;99544.72;5002628;28;19925;-77
2021/09/05 02:29:53;;;;;;;;;;;;;;;17.33;100.00;99543.59;4989883;28;19930;-77
2021/09/05 02:32:52;;;;;;;;;;;;;;;16.70;100.00;99545.00;5024788;28;19975;-77
2021/09/05 02:35:38;;;;;;;;;;;;;;;16.90;100.00;99548.34;5087518;28;19924;-78
2021/09/05 02:38:29;;;;;;;;;;;;;;;17.04;100.00;99553.53;5088882;28;19927;-77
2021/09/05 02:41:14;;;;;;;;;;;;;;;17.11;100.00;99544.81;5091057;28;19967;-77
2021/09/05 02:44:10;;;;;;;;;;;;;;;17.22;100.00;99550.88;5062996;28;19928;-78
2021/09/05 02:47:10;;;;;;;;;;;;;;;17.17;100.00;99542.97;5076595;28;19977;-77
2021/09/05 02:49:56;;;;;;;;;;;;;;;17.16;100.00;99539.34;5076541;28;20020;-78
2021/09/05 02:52:43;;;;;;;;;;;;;;;17.01;100.00;99540.31;5109974;28;19928;-77
2021/09/05 02:55:29;;;;;;;;;;;;;;;17.14;100.00;99541.06;5094699;28;19969;-78
2021/09/05 02:58:15;;;;;;;;;;;;;;;17.29;100.00;99534.47;5076464;28;19959;-78
2021/09/05 03:01:06;;;;;;;;;;;;;;;17.14;100.00;99549.53;5093129;28;19927;-77
2021/09/05 03:03:53;;;;;;;;;;;;;;;17.31;100.00;99542.50;5094325;28;19932;-77
2021/09/05 03:06:40;;;;;;;;;;;;;;;17.02;100.00;99539.06;5088719;28;19924;-78
2021/09/05 03:09:28;;;;;;;;;;;;;;;16.80;100.00;99541.81;5056302;28;19924;-77
2021/09/05 03:12:15;;;;;;;;;;;;;;;16.95;100.00;99547.78;5075587;28;19924;-77
2021/09/05 03:15:21;;;;;;;;;;;;;;;17.12;100.00;99537.91;5093773;28;19925;-77
2021/09/05 03:18:18;;;;;;;;;;;;;;;16.96;100.00;99543.72;5043873;28;20340;-77
2021/09/05 03:21:08;;;;;;;;;;;;;;;16.87;100.00;99541.59;5031543;28;19932;-77
2021/09/05 03:23:38;;;;;;;;;;;;;;;17.10;100.00;99540.41;5031507;28;20366;-77
2021/09/05 03:26:23;;;;;;;;;;;;;;;17.17;100.00;99545.81;5015159;28;20333;-77
2021/09/05 03:29:10;;;;;;;;;;;;;;;17.32;100.00;99544.06;5001068;28;19925;-78
2021/09/05 03:31:56;;;;;;;;;;;;;;;17.24;100.00;99548.38;5031520;28;20466;-77
2021/09/05 03:34:46;;;;;;;;;;;;;;;17.32;100.00;99539.22;5033006;28;19929;-78
2021/09/05 03:37:44;;;;;;;;;;;;;;;17.22;100.00;99539.59;5022551;28;19964;-78
2021/09/05 03:40:37;;;;;;;;;;;;;;;17.11;100.00;99544.81;4998487;28;19932;-77
2021/09/05 03:43:23;;;;;;;;;;;;;;;17.20;100.00;99544.88;5047957;28;20417;-77
2021/09/05 03:46:12;;;;;;;;;;;;;;;17.24;100.00;99543.53;5029038;28;19971;-78
2021/09/05 03:49:15;;;;;;;;;;;;;;;17.15;100.00;99545.47;5014510;28;19925;-78
2021/09/05 03:51:45;;;;;;;;;;;;;;;17.20;100.00;99542.88;5014762;28;19925;-78
2021/09/05 03:54:17;;;;;;;;;;;;;;;17.22;100.00;99539.59;5027046;28;19928;-77
2021/09/05 03:56:45;;;;;;;;;;;;;;;17.32;100.00;99544.06;5091664;28;20014;-78
2021/09/05 03:59:13;;;;;;;;;;;;;;;17.33;100.00;99539.97;5075396;28;19934;-77
2021/09/05 04:01:41;;;;;;;;;;;;;;;17.41;100.00;99539.28;5088457;28;20019;-77
2021/09/05 04:04:20;;;;;;;;;;;;;;;17.30;100.00;99538.88;5036920;28;20023;-77
2021/09/05 04:07:00;;;;;;;;;;;;;;;17.35;100.00;99543.13;5070861;28;19964;-77
2021/09/05 04:12:17;;;;;;;;;;;;;;;17.53;100.00;99538.47;5060311;28;20054;-77
2021/09/05 04:14:44;;;;;;;;;;;;;;;17.52;100.00;99536.09;5072908;28;20437;-78
2021/09/05 04:17:11;;;;;;;;;;;;;;;17.41;100.00;99535.66;5055633;28;19925;-77
2021/09/05 04:19:38;;;;;;;;;;;;;;;17.25;100.00;99533.78;5071852;28;20344;-77
2021/09/05 04:22:05;;;;;;;;;;;;;;;16.98;100.00;99539.19;5071760;28;19985;-77
2021/09/05 04:24:32;;;;;;;;;;;;;;;17.19;100.00;99538.44;5061848;28;19925;-77
2021/09/05 04:27:00;;;;;;;;;;;;;;;17.33;100.00;99539.97;5070316;28;19924;-77
2021/09/05 04:29:26;;;;;;;;;;;;;;;17.24;100.00;99537.06;5063450;28;19928;-77
2021/09/05 04:31:54;;;;;;;;;;;;;;;17.35;100.00;99543.13;5063923;28;20035;-77
2021/09/05 04:34:21;;;;;;;;;;;;;;;17.20;100.00;99534.41;5072867;28;19952;-77
2021/09/05 04:36:48;;;;;;;;;;;;;;;17.19;100.00;99534.84;5073017;28;19947;-77
2021/09/05 04:39:15;;;;;;;;;;;;;;;17.23;100.00;99538.31;5038628;28;19925;-77
2021/09/05 04:41:42;;;;;;;;;;;;;;;17.14;100.00;99538.25;5071681;28;19934;-77
2021/09/05 04:44:09;;;;;;;;;;;;;;;17.23;100.00;99541.16;5071488;28;19924;-77
2021/09/05 04:46:36;;;;;;;;;;;;;;;17.17;100.00;99537.34;5055213;28;19924;-77
2021/09/05 04:49:03;;;;;;;;;;;;;;;17.10;100.00;99543.25;5088597;28;20362;-77
2021/09/05 04:51:30;;;;;;;;;;;;;;;17.06;100.00;99542.56;5052375;28;19964;-77
2021/09/05 04:54:00;;;;;;;;;;;;;;;17.02;100.00;99544.72;5063512;28;19924;-77
2021/09/05 04:56:27;;;;;;;;;;;;;;;16.83;100.00;99548.56;5071390;28;19932;-77
2021/09/05 04:58:54;;;;;;;;;;;;;;;16.48;100.00;99544.13;5045218;28;19982;-77
2021/09/05 05:01:21;;;;;;;;;;;;;;;16.47;100.00;99550.97;5078021;28;19924;-77
2021/09/05 05:03:48;;;;;;;;;;;;;;;16.58;100.00;99545.81;5074866;28;19930;-77
2021/09/05 05:06:33;;;;;;;;;;;;;;;16.57;100.00;99544.22;5092893;28;20011;-78
2021/09/05 05:09:00;;;;;;;;;;;;;;;16.15;100.00;99547.13;5077088;28;19973;-77
2021/09/05 05:11:28;;;;;;;;;;;;;;;16.27;100.00;99543.53;5080739;28;19994;-77
2021/09/05 05:13:55;;;;;;;;;;;;;;;15.95;100.00;99552.16;5084166;28;19924;-77
2021/09/05 05:16:22;;;;;;;;;;;;;;;16.14;100.00;99554.00;5096467;28;19947;-77
2021/09/05 05:18:50;;;;;;;;;;;;;;;16.15;100.00;99552.75;5082570;28;19993;-77
2021/09/05 05:21:17;;;;;;;;;;;;;;;16.10;100.00;99556.13;5096286;28;19928;-77
2021/09/05 05:23:44;;;;;;;;;;;;;;;16.20;100.00;99566.31;5057946;28;19928;-77
2021/09/05 05:26:11;;;;;;;;;;;;;;;16.13;100.00;99555.22;5061559;28;20295;-77
2021/09/05 05:28:38;;;;;;;;;;;;;;;16.16;100.00;99565.59;5078139;28;19924;-77
2021/09/05 05:31:05;;;;;;;;;;;;;;;16.19;100.00;99561.88;5072689;28;19972;-77
2021/09/05 05:33:33;;;;;;;;;;;;;;;16.16;100.00;99565.59;5086510;28;19932;-76
2021/09/05 05:36:01;;;;;;;;;;;;;;;16.17;100.00;99561.56;5077909;28;19931;-78
2021/09/05 05:38:46;;;;;;;;;;;;;;;16.10;100.00;99566.59;5078113;28;20023;-77
2021/09/05 05:41:38;;;;;;;;;;;;;;;15.98;100.00;99571.00;5048335;28;19928;-77
2021/09/05 05:44:05;;;;;;;;;;;;;;;16.04;100.00;99572.03;5076906;28;20307;-77
2021/09/05 05:46:34;;;;;;;;;;;;;;;15.36;100.00;99574.34;5064037;28;20375;-77
2021/09/05 05:49:01;;;;;;;;;;;;;;;15.58;100.00;99569.75;5095529;28;19924;-77
2021/09/05 05:51:28;;;;;;;;;;;;;;;15.77;100.00;99577.25;5072339;28;20280;-76
2021/09/05 05:53:55;;;;;;;;;;;;;;;15.84;100.00;99587.53;5075219;28;20302;-76
2021/09/05 05:56:22;;;;;;;;;;;;;;;15.71;100.00;99579.03;5075283;28;19925;-76
2021/09/05 05:58:49;;;;;;;;;;;;;;;15.81;100.00;99589.19;5075303;28;19924;-76
2021/09/05 06:01:17;;;;;;;;;;;;;;;15.82;100.00;99590.81;5072752;28;19981;-76
2021/09/05 06:03:53;;;;;;;;;;;;;;;15.93;100.00;99591.25;5060599;28;19924;-76
2021/09/05 06:06:20;;;;;;;;;;;;;;;15.90;100.00;99594.97;5095160;28;19924;-76
2021/09/05 06:08:47;;;;;;;;;;;;;;;16.01;100.00;99598.28;5048218;28;20280;-76
2021/09/05 06:11:14;;;;;;;;;;;;;;;15.72;100.00;99597.50;5110882;28;20337;-76
2021/09/05 06:13:54;;;;;;;;;;;;;;;15.94;100.00;99608.97;5057074;28;19931;-76
2021/09/05 06:16:25;;;;;;;;;;;;;;;15.96;100.00;99606.50;5038096;28;20370;-76
2021/09/05 06:18:52;;;;;;;;;;;;;;;15.79;100.00;99605.78;5030564;28;19978;-76
2021/09/05 06:21:19;;;;;;;;;;;;;;;15.88;100.00;99614.38;5077979;28;20350;-76
2021/09/05 06:23:47;;;;;;;;;;;;;;;16.10;100.00;99612.50;5089460;28;19978;-76
2021/09/05 06:26:14;;;;;;;;;;;;;;;16.19;100.00;99621.09;5038772;28;19963;-76
2021/09/05 06:28:55;;;;;;;;;;;;;;;16.07;100.00;99619.03;5080734;28;20371;-76
2021/09/05 06:31:31;;;;;;;;;;;;;;;16.07;100.00;99613.41;5060670;28;20012;-76
2021/09/05 06:34:01;;;;;;;;;;;;;;;16.28;100.00;99621.22;5066476;28;20449;-76
2021/09/05 06:36:31;;;;;;;;;;;;;;;16.42;100.00;99613.59;5081316;28;19933;-76
2021/09/05 06:39:01;;;;;;;;;;;;;;;16.43;100.00;99612.34;5072007;28;20007;-76
2021/09/05 06:41:31;;;;;;;;;;;;;;;16.66;100.00;99614.88;5053597;28;20395;-76
2021/09/05 06:43:59;;;;;;;;;;;;;;;16.23;100.00;99618.97;5038432;28;19924;-76
2021/09/05 06:46:33;;;;;;;;;;;;;;;16.94;100.00;99625.22;5034926;28;19924;-76
2021/09/05 06:49:01;;;;;;;;;;;;;;;17.50;100.00;99606.38;5054479;28;20375;-76
2021/09/05 06:51:28;;;;;;;;;;;;;;;18.16;100.00;99605.94;5079054;28;19928;-76
2021/09/05 06:53:55;;;;;;;;;;;;;;;19.25;100.00;99605.19;5071113;28;19931;-77
2021/09/05 06:56:22;;;;;;;;;;;;;;;20.38;100.00;99603.78;5059477;28;19959;-76
2021/09/05 06:58:50;;;;;;;;;;;;;;;21.18;100.00;99603.94;5103879;28;19928;-77
2021/09/05 07:01:17;;;;;;;;;;;;;;;21.83;100.00;99595.28;5066678;28;20382;-77
2021/09/05 07:03:45;;;;;;;;;;;;;;;22.32;100.00;99591.81;5070903;28;19978;-77
2021/09/05 07:06:15;;;;;;;;;;;;;;;22.96;100.00;99579.16;5058343;28;19931;-77
2021/09/05 07:08:43;;;;;;;;;;;;;;;23.12;100.00;99592.09;5089111;28;19925;-77
2021/09/05 07:11:12;;;;;;;;;;;;;;;23.13;100.00;99592.91;5053498;28;20003;-77
2021/09/05 07:13:39;;;;;;;;;;;;;;;23.30;100.00;99591.84;5073491;28;19931;-77
2021/09/05 07:16:07;;;;;;;;;;;;;;;23.16;100.00;99591.91;5063857;28;19929;-78
2021/09/05 07:18:34;;;;;;;;;;;;;;;23.71;100.00;99592.66;5092388;28;19928;-78
2021/09/05 07:21:01;;;;;;;;;;;;;;;23.84;100.00;99588.13;5094235;28;20360;-78
2021/09/05 07:23:28;;;;;;;;;;;;;;;23.77;100.00;99597.13;5064273;28;20023;-78
2021/09/05 07:25:57;;;;;;;;;;;;;;;24.29;100.00;99593.09;5088049;28;19947;-78
2021/09/05 07:28:24;;;;;;;;;;;;;;;24.90;100.00;99592.84;5056869;28;19981;-78
2021/09/05 07:30:51;;;;;;;;;;;;;;;24.86;100.00;99590.22;5075523;28;19928;-78
2021/09/05 07:33:18;;;;;;;;;;;;;;;25.29;100.00;99586.09;5092886;28;20002;-78
2021/09/05 07:35:45;;;;;;;;;;;;;;;25.64;100.00;99588.63;5075556;28;19924;-78
2021/09/05 07:38:12;;;;;;;;;;;;;;;25.99;100.00;99591.91;5075920;28;19929;-79
2021/09/05 07:40:39;;;;;;;;;;;;;;;25.86;100.00;99589.50;5093889;28;19931;-78
2021/09/05 07:43:06;;;;;;;;;;;;;;;25.88;100.00;99589.75;5088324;28;19931;-76
2021/09/05 07:45:34;;;;;;;;;;;;;;;25.69;100.00;99585.78;5056024;28;19931;-78
2021/09/05 07:48:22;;;;;;;;;;;;;;;26.34;100.00;99593.00;5087288;28;20279;-78
2021/09/05 07:50:50;;;;;;;;;;;;;;;26.57;100.00;99584.44;5066470;28;19963;-78
2021/09/05 07:53:17;;;;;;;;;;;;;;;26.87;100.00;99585.50;5093501;28;19924;-79
2021/09/05 07:55:44;;;;;;;;;;;;;;;26.92;100.00;99590.44;5047272;28;19928;-80
2021/09/05 07:58:11;;;;;;;;;;;;;;;26.75;100.00;99581.84;5072115;28;20355;-78
2021/09/05 08:00:38;;;;;;;;;;;;;;;25.92;100.00;99590.28;5073852;28;19939;-79
2021/09/05 08:03:05;;;;;;;;;;;;;;;25.51;100.00;99600.53;5093345;28;19938;-78
2021/09/05 08:05:32;;;;;;;;;;;;;;;24.86;100.00;99610.22;5073389;28;19924;-77
2021/09/05 08:07:59;;;;;;;;;;;;;;;23.16;100.00;99611.84;5091386;28;19943;-77
2021/09/05 08:10:27;;;;;;;;;;;;;;;22.78;100.00;99613.59;5092927;28;20010;-78
2021/09/05 08:12:54;;;;;;;;;;;;;;;21.72;100.00;99620.63;5070245;28;19928;-77
2021/09/05 08:15:21;;;;;;;;;;;;;;;20.39;100.00;99635.78;5069584;28;19947;-76
2021/09/05 08:17:51;;;;;;;;;;;;;;;20.32;100.00;99645.44;5079659;28;20320;-78
2021/09/05 08:20:20;;;;;;;;;;;;;;;20.03;100.00;99644.31;5071013;28;19924;-77
2021/09/05 08:22:47;;;;;;;;;;;;;;;19.88;100.00;99646.22;5092873;28;19924;-78
2021/09/05 08:25:17;;;;;;;;;;;;;;;19.93;100.00;99654.09;5074262;28;19942;-79
2021/09/05 08:27:45;;;;;;;;;;;;;;;20.76;100.00;99654.31;5072968;28;19928;-78
2021/09/05 08:30:14;;;;;;;;;;;;;;;20.29;100.00;99654.09;5067564;28;19935;-77
2021/09/05 08:32:41;;;;;;;;;;;;;;;20.15;100.00;99649.88;5060120;28;20019;-76
2021/09/05 08:35:09;;;;;;;;;;;;;;;20.91;100.00;99655.19;5086126;28;19928;-76
2021/09/05 08:37:36;;;;;;;;;;;;;;;21.59;100.00;99645.69;5073918;28;19942;-78
2021/09/05 08:40:08;;;;;;;;;;;;;;;21.25;100.00;99646.19;5086769;28;20028;-78
2021/09/05 08:42:35;;;;;;;;;;;;;;;21.43;100.00;99652.56;5095449;28;19933;-78
2021/09/05 08:45:11;;;;;;;;;;;;;;;22.03;100.00;99643.78;5067794;28;19925;-81
2021/09/05 08:47:40;;;;;;;;;;;;;;;22.86;100.00;99643.25;5044751;28;19924;-80
2021/09/05 08:50:07;;;;;;;;;;;;;;;23.43;100.00;99640.00;5084760;28;19924;-80
2021/09/05 08:52:35;;;;;;;;;;;;;;;23.45;100.00;99634.56;5097114;28;20356;-84
2021/09/05 08:55:12;;;;;;;;;;;;;;;23.51;100.00;99635.47;5060592;28;19924;-77
2021/09/05 08:57:48;;;;;;;;;;;;;;;24.35;100.00;99624.53;5094528;28;19924;-78
2021/09/05 09:00:43;;;;;;;;;;;;;;;24.34;100.00;99631.56;5062890;28;19937;-77
2021/09/05 09:03:36;;;;;;;;;;;;;;;23.56;100.00;99635.50;5073511;28;19928;-78
2021/09/05 09:06:03;;;;;;;;;;;;;;;24.24;100.00;99644.41;5087255;28;19985;-78
2021/09/05 09:08:30;;;;;;;;;;;;;;;24.45;100.00;99645.91;5042813;28;19928;-81
2021/09/05 09:10:59;;;;;;;;;;;;;;;24.13;100.00;99632.84;5069025;28;20469;-79
2021/09/05 09:13:25;;;;;;;;;;;;;;;24.26;100.00;99633.28;5065189;28;19955;-79
2021/09/05 09:15:53;;;;;;;;;;;;;;;22.78;100.00;99641.31;5089090;28;20367;-79
2021/09/05 09:18:27;;;;;;;;;;;;;;;23.00;100.00;99648.16;5094421;28;19924;-78
2021/09/05 09:20:56;;;;;;;;;;;;;;;23.45;100.00;99643.13;5070534;28;19997;-79
2021/09/05 09:23:27;;;;;;;;;;;;;;;23.89;100.00;99640.84;5095428;28;20008;-79
2021/09/05 09:26:21;;;;;;;;;;;;;;;23.91;100.00;99646.84;5072224;28;20319;-79
2021/09/05 09:28:50;;;;;;;;;;;;;;;23.87;100.00;99652.00;5092123;28;19928;-78
2021/09/05 09:31:19;;;;;;;;;;;;;;;23.92;100.00;99637.78;5072205;28;19928;-78
2021/09/05 09:33:48;;;;;;;;;;;;;;;23.59;100.00;99639.44;5073695;28;19947;-75
2021/09/05 09:36:16;;;;;;;;;;;;;;;21.89;100.00;99641.69;5072773;28;20023;-77
2021/09/05 09:38:44;;;;;;;;;;;;;;;22.44;100.00;99657.00;5056084;28;20019;-78
2021/09/05 09:41:11;;;;;;;;;;;;;;;22.20;100.00;99647.75;5095915;28;20383;-78
2021/09/05 09:43:56;;;;;;;;;;;;;;;21.96;100.00;99652.69;5095886;28;20387;-77
2021/09/05 09:46:25;;;;;;;;;;;;;;;21.30;100.00;99649.19;5094180;28;19945;-78
2021/09/05 09:48:58;;;;;;;;;;;;;;;21.52;100.00;99653.78;5074937;28;20341;-78
2021/09/05 09:51:25;;;;;;;;;;;;;;;21.01;100.00;99653.91;5093464;28;20260;-78
2021/09/05 09:53:53;;;;;;;;;;;;;;;21.02;100.00;99646.97;5094757;28;19931;-76
2021/09/05 09:56:23;;;;;;;;;;;;;;;21.18;100.00;99657.94;5057481;28;19969;-76
2021/09/05 09:58:51;;;;;;;;;;;;;;;20.36;100.00;99654.56;5074149;28;20342;-76
2021/09/05 10:01:20;;;;;;;;;;;;;;;21.07;100.00;99663.34;5076454;28;19931;-75
2021/09/05 10:03:48;;;;;;;;;;;;;;;21.41;100.00;99654.34;5077380;28;20019;-76
2021/09/05 10:06:16;;;;;;;;;;;;;;;21.02;100.00;99649.81;5073888;28;19955;-76
2021/09/05 10:08:46;;;;;;;;;;;;;;;21.68;100.00;99648.47;5093943;28;19928;-75
2021/09/05 10:11:19;;;;;;;;;;;;;;;21.56;100.00;99649.50;5074855;28;20372;-75
2021/09/05 10:13:47;;;;;;;;;;;;;;;20.51;100.00;99646.94;5081814;28;20440;-75
2021/09/05 10:16:14;;;;;;;;;;;;;;;21.48;100.00;99641.81;5093803;28;20536;-75
2021/09/05 10:18:43;;;;;;;;;;;;;;;21.80;100.00;99635.28;5073216;28;20456;-75
2021/09/05 10:21:14;;;;;;;;;;;;;;;21.86;100.00;99634.13;5068362;28;20011;-75
2021/09/05 10:23:51;;;;;;;;;;;;;;;21.20;100.00;99635.50;5089368;28;20310;-75
2021/09/05 10:26:18;;;;;;;;;;;;;;;21.31;100.00;99639.38;5075334;28;19924;-75
2021/09/05 10:28:47;;;;;;;;;;;;;;;21.56;100.00;99645.84;5092120;28;20264;-75
2021/09/05 10:31:26;;;;;;;;;;;;;;;21.77;100.00;99631.34;5081197;28;19935;-75
2021/09/05 10:34:18;;;;;;;;;;;;;;;22.12;100.00;99626.63;5076647;28;19938;-76
2021/09/05 10:36:45;;;;;;;;;;;;;;;21.59;100.00;99622.94;5076109;28;20421;-75
2021/09/05 10:39:12;;;;;;;;;;;;;;;21.39;100.00;99620.72;5108378;28;20490;-77
2021/09/05 10:41:51;;;;;;;;;;;;;;;22.10;100.00;99626.31;5076399;28;19924;-78
2021/09/05 10:44:18;;;;;;;;;;;;;;;22.07;100.00;99626.53;5093810;28;19974;-77
2021/09/05 10:46:47;;;;;;;;;;;;;;;22.27;100.00;99623.78;5068830;28;19989;-76
2021/09/05 10:49:14;;;;;;;;;;;;;;;21.29;100.00;99629.78;5070746;28;19924;-75
2021/09/05 10:51:47;;;;;;;;;;;;;;;22.31;100.00;99625.16;5091635;28;19946;-76
2021/09/05 10:54:22;;;;;;;;;;;;;;;21.39;100.00;99639.81;5070275;28;20442;-75
2021/09/05 10:56:49;;;;;;;;;;;;;;;22.08;100.00;99634.59;5092767;28;19924;-75
2021/09/05 10:59:23;;;;;;;;;;;;;;;22.63;100.00;99618.53;5093642;28;19944;-76
2021/09/05 11:01:50;;;;;;;;;;;;;;;22.32;100.00;99621.06;5075331;28;20010;-76
2021/09/05 11:04:25;;;;;;;;;;;;;;;22.08;100.00;99620.34;5093725;28;20023;-75
2021/09/05 11:06:53;;;;;;;;;;;;;;;22.24;100.00;99625.56;5093334;28;19924;-75
2021/09/05 11:09:24;;;;;;;;;;;;;;;22.28;100.00;99619.69;5094086;28;19924;-76
2021/09/05 11:11:54;;;;;;;;;;;;;;;22.24;100.00;99616.22;5073364;28;19961;-75
2021/09/05 11:14:36;;;;;;;;;;;;;;;22.24;100.00;99617.03;5092493;28;19924;-75
2021/09/05 11:17:07;;;;;;;;;;;;;;;21.70;100.00;99608.97;5074439;28;19947;-79
2021/09/05 11:19:36;;;;;;;;;;;;;;;21.88;100.00;99603.16;5094483;28;20394;-76
2021/09/05 11:22:06;;;;;;;;;;;;;;;21.49;100.00;99598.69;5090222;28;19924;-75
2021/09/05 11:24:34;;;;;;;;;;;;;;;21.35;100.00;99610.78;5103182;28;19967;-75
2021/09/05 11:27:03;;;;;;;;;;;;;;;21.97;100.00;99616.50;5087679;28;19943;-76
2021/09/05 11:29:32;;;;;;;;;;;;;;;22.26;100.00;99608.78;5083126;28;19928;-75
2021/09/05 11:32:01;;;;;;;;;;;;;;;22.44;100.00;99605.75;5048626;28;20401;-75
2021/09/05 11:34:29;;;;;;;;;;;;;;;22.66;100.00;99597.59;5074999;28;20394;-75
2021/09/05 11:36:57;;;;;;;;;;;;;;;22.58;100.00;99604.97;5082051;28;19971;-75
2021/09/05 11:39:25;;;;;;;;;;;;;;;21.96;100.00;99615.69;5054905;28;19931;-75
2021/09/05 11:58:07;;;;;;;;;;;;;;;22.69;100.00;99588.06;5065362;28;19920;-75
2021/09/05 12:00:38;;;;;;;;;;;;;;;23.05;100.00;99579.03;5099043;28;19927;-76
2021/09/05 12:03:12;;;;;;;;;;;;;;;22.70;100.00;99571.78;5061311;28;19931;-75
2021/09/05 12:05:40;;;;;;;;;;;;;;;22.90;100.00;99586.84;5085949;28;19924;-75
2021/09/05 12:08:09;;;;;;;;;;;;;;;22.23;100.00;99595.53;5066720;28;19948;-75
2021/09/05 12:10:36;;;;;;;;;;;;;;;22.78;100.00;99590.81;5096120;28;19928;-75
2021/09/05 12:13:12;;;;;;;;;;;;;;;22.71;100.00;99576.19;5079832;28;19955;-75
2021/09/05 12:15:46;;;;;;;;;;;;;;;22.74;100.00;99581.69;5075496;28;20310;-76
2021/09/05 12:18:21;;;;;;;;;;;;;;;22.51;100.00;99593.19;5083239;28;19928;-78
2021/09/05 12:20:54;;;;;;;;;;;;;;;22.77;100.00;99591.28;5063329;28;19978;-79
2021/09/05 12:23:21;;;;;;;;;;;;;;;22.15;100.00;99594.34;5058276;28;20345;-78
2021/09/05 12:25:49;;;;;;;;;;;;;;;22.79;100.00;99595.25;5082934;28;19924;-77
2021/09/05 12:28:21;;;;;;;;;;;;;;;22.27;100.00;99596.13;5081074;28;19978;-77
2021/09/05 12:30:52;;;;;;;;;;;;;;;22.66;100.00;99599.66;5075217;28;19943;-77
2021/09/05 12:33:27;;;;;;;;;;;;;;;23.29;100.00;99589.50;5096093;28;19931;-77
2021/09/05 12:36:16;;;;;;;;;;;;;;;22.65;100.00;99584.66;5097154;28;19923;-77
2021/09/05 12:38:53;;;;;;;;;;;;;;;22.15;100.00;99591.50;5079158;28;19924;-77
2021/09/05 12:41:22;;;;;;;;;;;;;;;22.85;100.00;99579.00;5096793;28;19969;-78
2021/09/05 12:43:57;;;;;;;;;;;;;;;23.32;100.00;99572.19;5097200;28;20023;-78
2021/09/05 12:46:37;;;;;;;;;;;;;;;23.54;100.00;99578.19;5096571;28;19931;-78
2021/09/05 12:49:15;;;;;;;;;;;;;;;23.28;100.00;99568.00;5096892;28;19971;-77
2021/09/05 12:52:00;;;;;;;;;;;;;;;23.65;100.00;99566.13;5083606;28;19936;-78
2021/09/05 12:54:28;;;;;;;;;;;;;;;23.31;100.00;99564.16;5078729;28;19977;-78
2021/09/05 12:56:56;;;;;;;;;;;;;;;23.48;100.00;99568.78;5112552;28;20014;-78
2021/09/05 12:59:24;;;;;;;;;;;;;;;23.59;100.00;99562.41;5078938;28;20410;-78
2021/09/05 13:01:51;;;;;;;;;;;;;;;23.46;100.00;99564.84;5060251;28;20024;-77
2021/09/05 13:04:19;;;;;;;;;;;;;;;23.45;100.00;99560.41;5087834;28;20402;-78
2021/09/05 13:06:46;;;;;;;;;;;;;;;24.11;100.00;99549.81;5068851;28;19928;-78
2021/09/05 13:09:20;;;;;;;;;;;;;;;24.14;100.00;99551.66;5071107;28;20017;-77
2021/09/05 13:11:49;;;;;;;;;;;;;;;24.29;100.00;99558.03;5067985;28;20263;-77
2021/09/05 13:14:16;;;;;;;;;;;;;;;24.16;100.00;99546.19;5081702;28;19929;-77
2021/09/05 13:16:45;;;;;;;;;;;;;;;24.17;100.00;99544.94;5065976;28;19928;-77
2021/09/05 13:19:13;;;;;;;;;;;;;;;24.29;100.00;99552.31;5048575;28;19929;-77
2021/09/05 13:21:40;;;;;;;;;;;;;;;24.04;100.00;99541.66;5064890;28;20026;-77
2021/09/05 13:24:07;;;;;;;;;;;;;;;23.94;100.00;99543.09;5066940;28;20359;-77
2021/09/05 13:26:35;;;;;;;;;;;;;;;24.27;100.00;99537.75;5063278;28;19924;-78